createdAt,value
2019-05-14T00:07:22.818Z,9.04
2019-05-14T00:10:11.789Z,8.96
2019-05-14T00:12:57.313Z,8.86
2019-05-14T00:15:44.944Z,8.78
2019-05-14T00:18:31.739Z,8.72
2019-05-14T00:21:18.219Z,8.64
2019-05-14T00:24:05.171Z,8.56
2019-05-14T00:26:52.187Z,8.48
2019-05-14T00:29:41.446Z,8.37
2019-05-14T00:32:26.315Z,8.27
2019-05-14T00:35:15.790Z,8.15
2019-05-14T00:41:11.136Z,7.93
2019-05-14T00:43:56.107Z,7.87
2019-05-14T00:46:43.353Z,8.45
2019-05-14T00:49:31.682Z,7.91
2019-05-14T00:52:17.276Z,7.75
2019-05-14T00:55:04.313Z,7.63
2019-05-14T01:13:22.118Z,6.99
2019-05-14T01:16:09.284Z,6.90
2019-05-14T01:22:09.263Z,6.99
2019-05-14T01:24:56.607Z,7.57
2019-05-14T01:49:27.979Z,6.38
2019-05-14T01:52:14.747Z,6.29
2019-05-14T01:55:02.151Z,6.88
2019-05-14T02:01:02.420Z,6.23
2019-05-14T02:19:22.324Z,5.98
2019-05-14T02:22:11.292Z,5.98
2019-05-14T02:31:23.532Z,5.89
2019-05-14T02:34:10.579Z,5.89
2019-05-14T03:20:24.186Z,5.56
2019-05-14T03:23:18.116Z,5.51
2019-05-14T03:26:00.508Z,5.45
2019-05-14T03:28:44.645Z,5.41
2019-05-14T03:50:10.280Z,5.24
2019-05-14T03:52:55.662Z,5.24
2019-05-14T03:55:42.396Z,5.25
2019-05-14T03:58:30.380Z,5.26
2019-05-14T04:01:19.906Z,5.24
2019-05-14T04:04:03.101Z,5.24
2019-05-14T04:13:03.320Z,6.40
2019-05-14T04:15:50.879Z,5.83
2019-05-14T04:18:40.429Z,5.73
2019-05-14T04:21:24.898Z,5.68
2019-05-14T04:27:20.300Z,5.65
2019-05-14T04:30:24.198Z,6.40
2019-05-14T04:33:10.632Z,5.94
2019-05-14T04:35:59.998Z,5.90
2019-05-14T04:38:44.556Z,5.92
2019-05-14T04:41:32.136Z,5.97
2019-05-14T04:44:19.414Z,6.04
2019-05-14T04:47:25.284Z,6.11
2019-05-14T04:49:52.836Z,6.17
2019-05-14T04:52:40.617Z,6.25
2019-05-14T04:58:49.623Z,6.59
2019-05-14T05:01:34.176Z,6.86
2019-05-14T05:04:20.928Z,7.03
2019-05-14T05:07:09.889Z,7.14
2019-05-14T05:09:54.631Z,7.20
2019-05-14T05:12:49.325Z,7.26
2019-05-14T05:15:34.715Z,7.31
2019-05-14T05:18:21.423Z,7.39
2019-05-14T05:21:08.835Z,8.36
2019-05-14T05:23:55.373Z,7.97
2019-05-14T05:33:01.953Z,8.03
2019-05-14T05:45:14.966Z,8.05
2019-05-14T05:48:09.402Z,8.14
2019-05-14T05:50:58.843Z,8.22
2019-05-14T05:53:43.582Z,9.11
2019-05-14T06:02:44.436Z,8.86
2019-05-14T06:08:39.259Z,9.85
2019-05-14T06:14:48.821Z,9.47
2019-05-14T06:20:49.398Z,9.49
2019-05-14T06:29:54.486Z,9.99
2019-05-14T06:45:22.026Z,11.03
2019-05-14T06:54:21.995Z,11.80
2019-05-14T06:57:09.157Z,12.81
2019-05-14T07:03:17.996Z,12.20
2019-05-14T07:06:04.460Z,12.37
2019-05-14T07:15:18.262Z,12.53
2019-05-14T07:36:58.737Z,13.53
2019-05-14T07:39:43.546Z,13.57
2019-05-14T07:42:44.970Z,13.77
2019-05-14T07:45:33.460Z,13.72
2019-05-14T07:48:19.093Z,13.72
2019-05-14T07:51:08.448Z,13.52
2019-05-14T07:53:53.736Z,13.16
2019-05-14T08:06:14.050Z,14.40
2019-05-14T08:09:15.520Z,13.89
2019-05-14T08:12:02.294Z,15.00
2019-05-14T08:24:26.945Z,15.16
2019-05-14T08:27:08.706Z,14.20
2019-05-14T08:29:58.911Z,14.05
2019-05-14T08:32:44.246Z,14.17
2019-05-14T08:38:38.312Z,14.67
2019-05-14T08:41:24.627Z,14.68
2019-05-14T08:47:25.246Z,14.08
2019-05-14T08:50:19.215Z,13.97
2019-05-14T08:53:05.874Z,13.86
2019-05-14T08:58:59.171Z,14.09
2019-05-14T09:02:00.840Z,14.17
2019-05-14T09:04:34.708Z,14.36
2019-05-14T09:07:21.775Z,14.31
2019-05-14T09:10:08.844Z,14.37
2019-05-14T09:16:19.419Z,14.52
2019-05-14T09:19:04.552Z,14.70
2019-05-14T09:21:51.850Z,14.64
2019-05-14T09:37:04.275Z,16.18
2019-05-14T09:46:18.685Z,16.06
2019-05-14T09:49:05.195Z,16.46
2019-05-14T09:55:06.130Z,16.84
2019-05-14T10:01:13.475Z,15.83
2019-05-14T10:10:14.459Z,16.22
2019-05-14T10:19:15.187Z,17.35
2019-05-14T10:22:02.701Z,17.01
2019-05-14T10:46:39.583Z,17.79
2019-05-14T10:49:29.701Z,18.22
2019-05-14T10:52:14.133Z,18.10
2019-05-14T10:55:01.264Z,18.21
2019-05-14T10:57:53.950Z,18.20
2019-05-14T11:00:36.069Z,18.40
2019-05-14T11:03:23.238Z,17.82
2019-05-14T11:40:19.091Z,16.72
2019-05-14T11:43:08.264Z,16.66
2019-05-14T11:45:52.855Z,16.70
2019-05-14T11:48:40.865Z,16.81
2019-05-14T11:57:39.798Z,16.19
2019-05-14T12:00:29.335Z,16.82
2019-05-14T12:03:13.887Z,17.47
2019-05-14T12:09:11.447Z,16.70
2019-05-14T12:12:12.579Z,16.46
2019-05-14T12:18:02.222Z,16.51
2019-05-14T12:20:49.860Z,16.71
2019-05-14T12:23:36.037Z,16.32
2019-05-14T12:26:23.076Z,15.89
2019-05-14T12:29:10.274Z,15.98
2019-05-14T12:35:19.687Z,16.69
2019-05-14T12:38:04.480Z,16.62
2019-05-14T12:40:51.372Z,17.95
2019-05-14T12:43:39.747Z,16.55
2019-05-14T12:46:25.025Z,16.27
2019-05-14T12:49:12.314Z,16.35
2019-05-14T12:55:05.862Z,18.58
2019-05-14T13:01:13.919Z,16.52
2019-05-14T13:04:01.464Z,17.90
2019-05-14T13:06:48.656Z,16.98
2019-05-14T13:09:38.316Z,16.80
2019-05-14T13:21:40.845Z,17.55
2019-05-14T13:30:39.957Z,19.04
2019-05-14T13:36:32.495Z,18.40
2019-05-14T13:45:32.873Z,16.69
2019-05-14T13:48:19.990Z,16.38
2019-05-14T13:51:08.981Z,17.90
2019-05-14T13:53:54.744Z,17.15
2019-05-14T13:56:41.550Z,17.35
2019-05-14T13:59:28.773Z,17.43
2019-05-14T14:02:18.930Z,17.59
2019-05-14T14:05:03.490Z,17.79
2019-05-14T14:14:20.231Z,17.71
2019-05-14T14:17:06.933Z,17.04
2019-05-14T14:19:53.698Z,16.43
2019-05-14T14:22:54.986Z,15.93
2019-05-14T14:31:53.895Z,15.21
2019-05-14T14:34:41.618Z,15.32
2019-05-14T14:37:42.866Z,15.32
2019-05-14T14:43:35.625Z,15.50
2019-05-14T14:46:22.456Z,15.75
2019-05-14T14:49:10.930Z,16.17
2019-05-14T14:51:58.894Z,16.42
2019-05-14T14:54:44.301Z,16.53
2019-05-14T14:57:31.304Z,16.34
2019-05-14T15:00:19.364Z,16.37
2019-05-14T15:03:05.858Z,16.63
2019-05-14T15:05:52.683Z,16.60
2019-05-14T15:08:40.151Z,16.64
2019-05-14T15:11:29.351Z,18.55
2019-05-14T15:14:15.331Z,17.79
2019-05-14T15:17:03.297Z,18.99
2019-05-14T15:19:50.605Z,18.79
2019-05-14T15:22:37.643Z,17.76
2019-05-14T15:25:28.933Z,17.07
2019-05-14T15:28:14.853Z,16.52
2019-05-14T15:31:18.936Z,16.68
2019-05-14T15:34:02.957Z,16.30
2019-05-14T15:36:50.198Z,17.33
2019-05-14T15:45:49.127Z,15.04
2019-05-14T15:54:50.536Z,14.55
2019-05-14T15:57:43.041Z,14.50
2019-05-14T16:00:30.363Z,14.45
2019-05-14T16:21:55.368Z,13.89
2019-05-14T16:24:55.710Z,14.77
2019-05-14T16:39:57.920Z,19.87
2019-05-14T16:42:44.711Z,19.11
2019-05-14T16:45:31.815Z,19.17
2019-05-14T16:51:32.523Z,19.85
2019-05-14T16:54:19.811Z,20.82
2019-05-14T17:34:22.416Z,19.79
2019-05-14T17:37:11.172Z,22.38
2019-05-14T17:39:59.179Z,21.09
2019-05-14T17:42:48.715Z,20.96
2019-05-14T17:45:40.839Z,20.60
2019-05-14T18:07:05.036Z,15.10
2019-05-14T18:13:08.872Z,14.10
2019-05-14T18:15:53.391Z,13.94
2019-05-14T18:18:40.302Z,13.58
2019-05-14T18:24:33.768Z,13.40
2019-05-14T18:27:38.762Z,13.15
2019-05-14T18:30:23.075Z,12.66
2019-05-14T18:33:10.364Z,12.31
2019-05-14T18:36:04.204Z,12.03
2019-05-14T18:38:51.066Z,11.74
2019-05-14T18:41:45.589Z,11.50
2019-05-14T18:44:49.279Z,11.23
2019-05-14T18:47:34.342Z,11.02
2019-05-14T18:56:48.938Z,10.42
2019-05-14T18:59:35.033Z,10.23
2019-05-14T19:08:34.000Z,9.64
2019-05-14T19:17:48.863Z,9.28
2019-05-14T19:29:53.568Z,8.75
2019-05-14T19:32:55.433Z,9.46
2019-05-14T19:35:49.810Z,8.77
2019-05-14T19:38:38.903Z,8.54
2019-05-14T19:41:24.138Z,8.39
2019-05-14T19:50:38.698Z,8.02
2019-05-14T19:53:24.813Z,7.96
2019-05-14T20:02:23.490Z,7.86
2019-05-14T20:05:10.527Z,7.81
2019-05-14T20:07:58.140Z,8.50
2019-05-14T20:26:14.609Z,7.64
2019-05-14T20:29:01.411Z,7.62
2019-05-14T20:31:48.339Z,7.57
2019-05-14T20:34:37.871Z,7.52
2019-05-14T20:37:24.841Z,7.49
2019-05-14T20:55:59.994Z,7.29
2019-05-14T20:58:48.156Z,7.16
2019-05-14T21:01:34.657Z,7.05
2019-05-14T21:04:22.226Z,6.93
2019-05-14T21:16:28.275Z,7.27
2019-05-14T21:19:14.517Z,6.68
2019-05-14T21:22:02.061Z,6.50
2019-05-14T21:37:19.742Z,6.74
2019-05-14T21:40:08.979Z,6.68
2019-05-14T21:49:07.640Z,6.52
2019-05-14T21:58:21.227Z,6.33
2019-05-14T22:01:08.060Z,6.30
2019-05-14T22:03:55.659Z,6.29
2019-05-14T22:06:42.608Z,6.28
2019-05-14T22:09:29.470Z,6.27
2019-05-14T22:12:20.309Z,6.25
2019-05-14T22:15:13.461Z,6.18
2019-05-14T22:21:22.784Z,6.04
2019-05-14T22:33:34.494Z,5.82
2019-05-14T22:36:21.601Z,5.82
2019-05-14T22:39:08.536Z,5.83
2019-05-14T22:45:01.681Z,5.83
2019-05-14T22:50:59.137Z,5.78
2019-05-14T22:53:50.720Z,5.77
2019-05-14T22:59:43.764Z,5.66
2019-05-14T23:05:39.370Z,5.52
2019-05-14T23:08:25.574Z,5.46
2019-05-14T23:11:13.492Z,5.40
2019-05-14T23:14:00.946Z,5.37
2019-05-14T23:16:49.175Z,5.33
2019-05-14T23:19:34.774Z,5.26
2019-05-14T23:22:22.283Z,5.23
2019-05-14T23:25:09.284Z,5.18
2019-05-14T23:27:56.124Z,5.15
2019-05-14T23:30:44.034Z,5.12
2019-05-14T23:33:30.886Z,5.13
2019-05-14T23:36:18.491Z,5.10
2019-05-14T23:39:08.880Z,5.09
2019-05-14T23:41:53.853Z,5.05
2019-05-14T23:44:40.901Z,4.99
2019-05-14T23:47:29.032Z,5.60
2019-05-14T23:50:16.823Z,5.15
2019-05-14T23:53:03.957Z,5.04
2019-05-14T23:55:50.776Z,5.00
2019-05-14T23:58:37.931Z,4.96
